createdAt,value
2019-05-15T00:01:05.321Z,98.30
2019-05-15T00:03:33.698Z,98.50
2019-05-15T00:06:02.131Z,98.60
2019-05-15T00:08:30.496Z,98.90
2019-05-15T00:10:58.892Z,99.10
2019-05-15T00:13:28.235Z,99.00
2019-05-15T00:15:58.878Z,99.20
2019-05-15T00:18:28.180Z,99.10
2019-05-15T00:20:59.332Z,99.10
2019-05-15T00:23:28.962Z,99.30
2019-05-15T00:25:58.522Z,99.40
2019-05-15T00:28:28.029Z,99.50
2019-05-15T00:30:58.256Z,99.60
2019-05-15T00:33:28.622Z,99.90
2019-05-15T00:35:58.859Z,99.90
2019-05-15T00:38:27.976Z,99.90
2019-05-15T00:40:58.472Z,99.90
2019-05-15T00:43:28.947Z,99.90
2019-05-15T00:45:58.596Z,99.90
2019-05-15T00:48:29.018Z,99.90
2019-05-15T00:50:58.878Z,99.90
2019-05-15T00:53:28.282Z,99.90
2019-05-15T00:55:58.024Z,99.90
2019-05-15T00:58:28.347Z,99.90
2019-05-15T01:00:59.006Z,99.90
2019-05-15T01:03:27.867Z,99.90
2019-05-15T01:05:58.475Z,99.90
2019-05-15T01:08:28.432Z,99.90
2019-05-15T01:10:58.204Z,99.90
2019-05-15T01:13:28.214Z,99.90
2019-05-15T01:15:58.249Z,99.90
2019-05-15T01:18:29.096Z,99.90
2019-05-15T01:20:58.676Z,99.90
2019-05-15T01:23:28.249Z,99.90
2019-05-15T01:25:58.874Z,99.90
2019-05-15T01:28:28.902Z,99.90
2019-05-15T01:30:59.190Z,99.90
2019-05-15T01:33:28.341Z,99.90
2019-05-15T01:35:58.905Z,99.90
2019-05-15T01:38:28.092Z,99.90
2019-05-15T01:40:58.965Z,99.90
2019-05-15T01:43:28.957Z,99.90
2019-05-15T01:45:58.818Z,99.90
2019-05-15T01:48:28.288Z,99.90
2019-05-15T01:50:58.547Z,99.90
2019-05-15T01:53:28.913Z,99.90
2019-05-15T01:55:58.954Z,99.90
2019-05-15T01:58:28.696Z,99.80
2019-05-15T02:00:58.948Z,99.70
2019-05-15T02:03:28.964Z,99.60
2019-05-15T02:05:58.674Z,99.80
2019-05-15T02:08:28.536Z,99.80
2019-05-15T02:10:58.895Z,99.90
2019-05-15T02:13:28.257Z,99.90
2019-05-15T02:15:58.768Z,99.90
2019-05-15T02:18:28.615Z,99.90
2019-05-15T02:20:58.730Z,99.90
2019-05-15T02:23:28.069Z,99.90
2019-05-15T02:25:58.714Z,99.90
2019-05-15T02:28:28.756Z,99.90
2019-05-15T02:30:58.763Z,99.90
2019-05-15T02:33:29.762Z,99.90
2019-05-15T02:35:59.399Z,99.90
2019-05-15T02:38:29.673Z,99.90
2019-05-15T02:40:59.212Z,99.90
2019-05-15T02:43:29.855Z,99.90
2019-05-15T02:46:00.458Z,99.90
2019-05-15T02:48:28.976Z,99.90
2019-05-15T02:50:58.929Z,99.90
2019-05-15T02:53:30.035Z,99.90
2019-05-15T02:56:00.188Z,99.90
2019-05-15T02:58:29.117Z,99.90
2019-05-15T03:00:59.249Z,99.90
2019-05-15T03:03:29.537Z,99.90
2019-05-15T03:06:00.088Z,99.90
2019-05-15T03:08:29.720Z,99.90
2019-05-15T03:10:59.211Z,99.90
2019-05-15T03:13:29.980Z,99.90
2019-05-15T03:15:59.941Z,99.90
2019-05-15T03:18:29.078Z,99.90
2019-05-15T03:21:00.382Z,99.90
2019-05-15T03:23:29.589Z,99.90
2019-05-15T03:26:02.916Z,99.90
2019-05-15T03:28:29.421Z,99.90
2019-05-15T03:31:33.319Z,99.90
2019-05-15T03:33:35.781Z,99.90
2019-05-15T03:36:02.875Z,99.90
2019-05-15T03:38:29.788Z,99.90
2019-05-15T03:40:59.506Z,99.90
2019-05-15T03:43:29.255Z,99.90
2019-05-15T03:46:01.238Z,99.90
2019-05-15T03:48:28.864Z,99.90
2019-05-15T03:50:59.788Z,99.90
2019-05-15T03:53:29.803Z,99.90
2019-05-15T03:55:58.971Z,99.90
2019-05-15T03:58:28.764Z,99.90
2019-05-15T04:01:00.334Z,99.90
2019-05-15T04:03:29.965Z,99.90
2019-05-15T04:06:00.545Z,99.90
2019-05-15T04:08:29.940Z,99.90
2019-05-15T04:10:59.620Z,99.90
2019-05-15T04:13:30.105Z,99.90
2019-05-15T04:15:59.512Z,99.90
2019-05-15T04:18:29.104Z,99.90
2019-05-15T04:21:00.187Z,99.90
2019-05-15T04:23:30.153Z,99.90
2019-05-15T04:25:59.097Z,99.90
2019-05-15T04:28:29.720Z,99.90
2019-05-15T04:30:59.572Z,99.90
2019-05-15T04:33:29.419Z,99.90
2019-05-15T04:35:58.923Z,99.90
2019-05-15T04:38:29.207Z,99.90
2019-05-15T04:40:59.113Z,99.90
2019-05-15T04:43:30.135Z,99.90
2019-05-15T04:45:59.042Z,99.90
2019-05-15T04:48:29.013Z,99.90
2019-05-15T04:50:58.839Z,99.90
2019-05-15T04:53:32.734Z,99.90
2019-05-15T04:55:59.742Z,99.90
2019-05-15T04:58:29.688Z,99.90
2019-05-15T05:00:59.966Z,99.90
2019-05-15T05:03:29.221Z,99.90
2019-05-15T05:05:59.212Z,99.90
2019-05-15T05:08:29.168Z,99.90
2019-05-15T05:10:59.224Z,99.90
2019-05-15T05:13:28.711Z,99.90
2019-05-15T05:15:58.650Z,99.90
2019-05-15T05:18:29.530Z,99.90
2019-05-15T05:20:57.832Z,99.90
2019-05-15T05:23:28.199Z,99.90
2019-05-15T05:25:58.156Z,99.90
2019-05-15T05:28:28.762Z,99.90
2019-05-15T05:30:58.815Z,99.90
2019-05-15T05:33:28.700Z,99.90
2019-05-15T05:35:58.419Z,99.90
2019-05-15T05:38:28.204Z,99.90
2019-05-15T05:40:58.676Z,99.90
2019-05-15T05:43:27.128Z,99.90
2019-05-15T05:45:55.517Z,99.90
2019-05-15T05:48:23.889Z,99.90
2019-05-15T05:50:52.272Z,99.90
2019-05-15T05:53:21.470Z,99.90
2019-05-15T05:55:52.957Z,99.90
2019-05-15T05:58:20.207Z,99.90
2019-05-15T06:00:49.349Z,99.90
2019-05-15T06:03:19.538Z,99.90
2019-05-15T06:05:49.427Z,99.90
2019-05-15T06:08:19.556Z,99.90
2019-05-15T06:10:49.660Z,98.80
2019-05-15T06:13:18.686Z,98.40
2019-05-15T06:15:48.779Z,97.50
2019-05-15T06:18:19.599Z,97.60
2019-05-15T06:20:49.411Z,97.50
2019-05-15T06:23:23.843Z,97.40
2019-05-15T06:25:49.240Z,96.70
2019-05-15T06:28:19.494Z,96.40
2019-05-15T06:30:48.679Z,95.80
2019-05-15T06:33:18.779Z,95.70
2019-05-15T06:35:49.061Z,95.80
2019-05-15T06:38:19.249Z,95.50
2019-05-15T06:40:49.658Z,95.20
2019-05-15T06:43:19.262Z,95.00
2019-05-15T06:45:49.033Z,94.90
2019-05-15T06:48:18.538Z,91.50
2019-05-15T06:50:49.008Z,85.30
2019-05-15T06:53:19.236Z,76.50
2019-05-15T06:55:48.571Z,73.10
2019-05-15T06:58:19.064Z,68.90
2019-05-15T07:00:48.807Z,62.40
2019-05-15T07:03:24.858Z,58.30
2019-05-15T07:05:50.302Z,52.40
2019-05-15T07:08:18.266Z,49.60
2019-05-15T07:10:48.639Z,48.00
2019-05-15T07:13:18.260Z,43.00
2019-05-15T07:15:49.455Z,42.70
2019-05-15T07:18:19.782Z,41.60
2019-05-15T07:20:48.785Z,40.30
2019-05-15T07:23:18.605Z,39.60
2019-05-15T07:25:49.726Z,41.30
2019-05-15T07:28:18.107Z,41.30
2019-05-15T07:30:49.563Z,40.60
2019-05-15T07:33:28.130Z,39.50
2019-05-15T07:35:49.388Z,38.60
2019-05-15T07:38:18.356Z,38.00
2019-05-15T07:40:55.486Z,38.30
2019-05-15T07:43:18.164Z,37.10
2019-05-15T07:45:53.325Z,37.90
2019-05-15T07:48:18.785Z,36.40
2019-05-15T07:50:49.762Z,36.00
2019-05-15T07:53:19.804Z,36.00
2019-05-15T07:55:49.947Z,34.00
2019-05-15T07:58:21.202Z,32.50
2019-05-15T08:00:49.335Z,32.90
2019-05-15T08:03:18.558Z,33.30
2019-05-15T08:05:56.109Z,32.60
2019-05-15T08:08:18.486Z,32.40
2019-05-15T08:10:48.789Z,34.50
2019-05-15T08:13:18.519Z,34.40
2019-05-15T08:15:48.707Z,31.80
2019-05-15T08:18:18.166Z,30.20
2019-05-15T08:20:49.049Z,28.90
2019-05-15T08:23:19.359Z,28.20
2019-05-15T08:25:48.499Z,29.40
2019-05-15T08:28:18.954Z,28.80
2019-05-15T08:30:49.507Z,28.20
2019-05-15T08:33:17.950Z,28.60
2019-05-15T08:35:51.150Z,27.20
2019-05-15T08:38:18.227Z,26.70
2019-05-15T08:40:48.888Z,26.20
2019-05-15T08:43:18.364Z,25.60
2019-05-15T08:45:49.488Z,26.30
2019-05-15T08:48:18.521Z,26.40
2019-05-15T08:50:48.865Z,26.30
2019-05-15T08:53:19.450Z,24.90
2019-05-15T08:55:48.517Z,24.10
2019-05-15T08:58:20.419Z,24.20
2019-05-15T09:00:51.825Z,24.30
2019-05-15T09:03:18.317Z,24.40
2019-05-15T09:05:48.610Z,24.50
2019-05-15T09:08:19.436Z,23.20
2019-05-15T09:10:49.881Z,23.20
2019-05-15T09:13:18.982Z,22.70
2019-05-15T09:15:48.777Z,23.20
2019-05-15T09:18:19.923Z,23.30
2019-05-15T09:20:49.126Z,24.40
2019-05-15T09:23:19.274Z,23.50
2019-05-15T09:25:49.373Z,24.10
2019-05-15T09:28:19.010Z,24.30
2019-05-15T09:30:48.504Z,23.50
2019-05-15T09:33:19.562Z,23.40
2019-05-15T09:35:49.078Z,24.00
2019-05-15T09:38:18.467Z,23.50
2019-05-15T09:40:50.292Z,22.90
2019-05-15T09:43:18.188Z,21.80
2019-05-15T09:45:49.431Z,22.90
2019-05-15T09:48:19.874Z,23.50
2019-05-15T09:50:49.376Z,22.70
2019-05-15T09:53:18.945Z,22.80
2019-05-15T09:55:49.449Z,22.80
2019-05-15T09:58:20.227Z,22.20
2019-05-15T10:00:52.249Z,22.40
2019-05-15T10:03:19.186Z,21.10
2019-05-15T10:05:48.245Z,20.70
2019-05-15T10:08:16.917Z,20.50
2019-05-15T10:10:45.304Z,20.20
2019-05-15T10:13:13.683Z,20.60
2019-05-15T10:15:42.063Z,20.90
2019-05-15T10:18:10.453Z,18.00
2019-05-15T10:20:38.832Z,18.10
2019-05-15T10:23:08.770Z,20.00
2019-05-15T10:25:38.973Z,20.40
2019-05-15T10:28:09.908Z,20.80
2019-05-15T10:30:39.419Z,20.40
2019-05-15T10:33:08.648Z,20.50
2019-05-15T10:35:39.237Z,20.30
2019-05-15T10:38:08.800Z,19.40
2019-05-15T10:40:41.070Z,19.80
2019-05-15T10:43:09.175Z,19.50
2019-05-15T10:45:42.269Z,18.40
2019-05-15T10:48:09.560Z,19.10
2019-05-15T10:50:38.837Z,20.20
2019-05-15T10:53:11.006Z,20.20
2019-05-15T10:55:39.537Z,19.50
2019-05-15T10:58:14.094Z,19.20
2019-05-15T11:00:37.875Z,19.70
2019-05-15T11:03:08.688Z,19.30
2019-05-15T11:05:44.533Z,19.10
2019-05-15T11:08:08.286Z,18.90
2019-05-15T11:10:38.610Z,18.40
2019-05-15T11:13:08.801Z,18.50
2019-05-15T11:15:40.498Z,18.40
2019-05-15T11:18:09.104Z,18.90
2019-05-15T11:20:40.873Z,18.50
2019-05-15T11:23:08.774Z,17.90
2019-05-15T11:25:37.805Z,19.00
2019-05-15T11:28:08.217Z,19.10
2019-05-15T11:30:39.043Z,18.70
2019-05-15T11:33:09.357Z,18.80
2019-05-15T11:35:39.090Z,18.70
2019-05-15T11:38:09.621Z,19.40
2019-05-15T11:40:38.835Z,19.20
2019-05-15T11:43:08.501Z,19.90
2019-05-15T11:45:38.972Z,20.80
2019-05-15T11:48:09.025Z,20.50
2019-05-15T11:50:39.987Z,20.40
2019-05-15T11:53:08.700Z,20.50
2019-05-15T11:55:38.728Z,20.50
2019-05-15T11:58:09.388Z,20.20
2019-05-15T12:00:38.434Z,19.50
2019-05-15T12:03:08.984Z,19.90
2019-05-15T12:05:38.587Z,18.90
2019-05-15T12:08:09.076Z,18.70
2019-05-15T12:10:38.940Z,19.40
2019-05-15T12:13:09.777Z,19.70
2019-05-15T12:15:38.892Z,20.10
2019-05-15T12:18:08.854Z,18.90
2019-05-15T12:20:38.957Z,19.00
2019-05-15T12:23:09.047Z,19.20
2019-05-15T12:25:39.356Z,19.90
2019-05-15T12:30:40.197Z,19.90
2019-05-15T12:33:09.301Z,20.30
2019-05-15T12:35:39.764Z,19.90
2019-05-15T12:38:10.075Z,20.10
2019-05-15T13:00:39.536Z,20.40
2019-05-15T13:03:09.118Z,20.50
2019-05-15T13:05:39.286Z,20.90
2019-05-15T13:08:08.537Z,21.10
2019-05-15T13:10:38.469Z,21.10
2019-05-15T13:13:09.574Z,21.20
2019-05-15T13:15:40.992Z,20.90
2019-05-15T13:18:13.409Z,21.30
2019-05-15T13:20:38.403Z,21.90
2019-05-15T13:23:08.595Z,21.30
2019-05-15T13:25:39.510Z,21.30
2019-05-15T13:28:08.887Z,21.30
2019-05-15T13:30:40.862Z,20.90
2019-05-15T13:33:10.078Z,20.90
2019-05-15T13:35:38.081Z,21.30
2019-05-15T13:38:09.523Z,22.10
2019-05-15T13:40:38.919Z,20.50
2019-05-15T13:43:08.385Z,20.30
2019-05-15T13:45:38.638Z,20.00
2019-05-15T13:48:08.908Z,19.90
2019-05-15T13:50:40.454Z,20.40
2019-05-15T13:53:10.606Z,21.00
2019-05-15T13:55:42.083Z,19.60
2019-05-15T13:58:08.739Z,20.20
2019-05-15T14:00:39.112Z,20.30
2019-05-15T14:03:09.187Z,20.10
2019-05-15T14:05:38.344Z,20.20
2019-05-15T14:08:07.202Z,21.30
2019-05-15T14:10:38.318Z,20.20
2019-05-15T14:13:05.896Z,20.30
2019-05-15T14:15:34.280Z,19.70
2019-05-15T14:18:02.654Z,20.50
2019-05-15T14:20:31.031Z,20.40
2019-05-15T14:22:59.400Z,20.80
2019-05-15T14:25:27.781Z,20.60
2019-05-15T14:27:59.118Z,20.20
2019-05-15T14:30:29.023Z,20.10
2019-05-15T14:32:59.375Z,20.80
2019-05-15T14:35:26.471Z,20.30
2019-05-15T14:38:03.582Z,20.40
2019-05-15T14:40:24.947Z,20.90
2019-05-15T14:42:53.348Z,20.90
2019-05-15T14:45:21.716Z,20.90
2019-05-15T14:47:50.126Z,20.70
2019-05-15T14:50:18.615Z,21.30
2019-05-15T14:52:47.938Z,21.70
2019-05-15T14:55:17.836Z,21.60
2019-05-15T14:57:48.523Z,22.30
2019-05-15T15:00:19.830Z,21.80
2019-05-15T15:02:49.486Z,21.40
2019-05-15T15:05:21.462Z,22.10
2019-05-15T15:07:49.113Z,22.00
2019-05-15T15:10:20.045Z,22.00
2019-05-15T15:12:50.031Z,20.80
2019-05-15T15:15:18.367Z,20.20
2019-05-15T15:17:49.048Z,20.90
2019-05-15T15:20:17.927Z,21.80
2019-05-15T15:22:48.581Z,22.80
2019-05-15T15:25:17.340Z,22.80
2019-05-15T15:27:47.819Z,23.30
2019-05-15T15:30:18.781Z,22.20
2019-05-15T15:32:48.820Z,22.20
2019-05-15T15:35:16.236Z,21.90
2019-05-15T15:37:44.607Z,21.70
2019-05-15T15:40:13.063Z,21.00
2019-05-15T15:42:41.442Z,21.30
2019-05-15T15:45:12.251Z,21.30
2019-05-15T15:47:40.633Z,21.30
2019-05-15T15:50:09.877Z,21.10
2019-05-15T15:52:38.806Z,20.90
2019-05-15T15:55:09.125Z,20.80
2019-05-15T15:57:39.870Z,21.70
2019-05-15T16:00:10.271Z,21.80
2019-05-15T16:02:41.078Z,21.90
2019-05-15T16:05:09.860Z,21.80
2019-05-15T16:07:38.571Z,21.50
2019-05-15T16:10:08.771Z,22.20
2019-05-15T16:12:38.735Z,22.60
2019-05-15T16:15:09.082Z,22.60
2019-05-15T16:17:38.410Z,22.10
2019-05-15T16:20:09.140Z,22.50
2019-05-15T16:22:38.292Z,22.90
2019-05-15T16:25:09.763Z,23.50
2019-05-15T16:27:38.560Z,23.50
2019-05-15T16:30:08.664Z,23.90
2019-05-15T16:32:38.790Z,24.40
2019-05-15T16:35:09.507Z,24.20
2019-05-15T16:37:38.803Z,23.40
2019-05-15T16:40:08.692Z,23.50
2019-05-15T16:42:38.475Z,23.00
2019-05-15T16:45:09.526Z,23.10
2019-05-15T16:47:38.917Z,23.40
2019-05-15T16:50:08.765Z,23.50
2019-05-15T16:52:38.732Z,24.00
2019-05-15T16:55:09.203Z,23.70
2019-05-15T16:57:38.704Z,23.50
2019-05-15T17:00:09.564Z,24.00
2019-05-15T17:02:39.689Z,24.60
2019-05-15T17:05:09.421Z,24.30
2019-05-15T17:07:38.719Z,24.80
2019-05-15T17:10:08.603Z,25.30
2019-05-15T17:12:38.780Z,26.00
2019-05-15T17:15:09.619Z,26.00
2019-05-15T17:17:38.698Z,25.90
2019-05-15T17:20:09.713Z,26.30
2019-05-15T17:22:38.608Z,26.20
2019-05-15T17:25:09.370Z,26.40
2019-05-15T17:27:37.535Z,25.90
2019-05-15T17:30:09.343Z,26.50
2019-05-15T17:32:38.860Z,26.90
2019-05-15T17:35:09.745Z,27.30
2019-05-15T17:37:37.984Z,27.30
2019-05-15T17:40:08.076Z,27.10
2019-05-15T17:42:38.805Z,27.30
2019-05-15T17:45:08.987Z,26.90
2019-05-15T17:47:38.837Z,27.00
2019-05-15T17:50:09.509Z,27.50
2019-05-15T17:52:38.710Z,27.30
2019-05-15T17:55:07.771Z,27.60
2019-05-15T17:57:38.530Z,28.60
2019-05-15T18:00:12.084Z,28.80
2019-05-15T18:02:38.372Z,29.40
2019-05-15T18:05:07.460Z,29.60
2019-05-15T18:07:35.835Z,30.00
2019-05-15T18:10:04.855Z,30.20
2019-05-15T18:12:33.237Z,30.70
2019-05-15T18:15:01.890Z,30.90
2019-05-15T18:17:30.556Z,31.10
2019-05-15T18:19:58.939Z,31.60
2019-05-15T18:22:27.692Z,32.60
2019-05-15T18:24:58.145Z,33.40
2019-05-15T18:27:26.171Z,33.40
2019-05-15T18:29:54.548Z,34.00
2019-05-15T18:32:22.924Z,34.70
2019-05-15T18:34:51.312Z,35.90
2019-05-15T18:37:19.686Z,35.40
2019-05-15T18:40:02.208Z,36.00
2019-05-15T18:42:18.730Z,36.90
2019-05-15T18:44:48.182Z,38.00
2019-05-15T18:47:18.866Z,39.10
2019-05-15T18:50:03.714Z,39.50
2019-05-15T18:52:18.210Z,40.30
2019-05-15T18:54:48.024Z,40.60
2019-05-15T18:57:18.506Z,41.10
2019-05-15T18:59:48.694Z,41.50
2019-05-15T19:02:19.063Z,41.70
2019-05-15T19:04:49.076Z,42.40
2019-05-15T19:07:22.820Z,42.70
2019-05-15T19:09:51.756Z,43.90
2019-05-15T19:12:20.143Z,44.70
2019-05-15T19:14:49.390Z,45.30
2019-05-15T19:17:18.804Z,45.70
2019-05-15T19:19:48.173Z,46.50
2019-05-15T19:22:19.094Z,47.10
2019-05-15T19:24:48.485Z,47.00
2019-05-15T19:27:18.736Z,47.70
2019-05-15T19:29:48.363Z,48.00
2019-05-15T19:32:17.715Z,49.00
2019-05-15T19:34:48.193Z,49.10
2019-05-15T19:37:18.336Z,50.40
2019-05-15T19:39:47.956Z,50.50
2019-05-15T19:42:18.106Z,50.60
2019-05-15T19:44:48.473Z,51.50
2019-05-15T19:47:18.527Z,52.10
2019-05-15T19:49:48.366Z,52.80
2019-05-15T19:52:17.867Z,53.10
2019-05-15T19:54:48.465Z,53.90
2019-05-15T19:57:18.479Z,55.00
2019-05-15T19:59:48.706Z,56.10
2019-05-15T20:02:18.001Z,57.60
2019-05-15T20:04:46.599Z,59.10
2019-05-15T20:07:14.975Z,61.50
2019-05-15T20:09:43.353Z,64.60
2019-05-15T20:12:11.789Z,67.30
2019-05-15T20:14:40.444Z,70.30
2019-05-15T20:17:08.816Z,73.30
2019-05-15T20:19:38.277Z,77.10
2019-05-15T20:22:08.016Z,78.80
2019-05-15T20:24:38.132Z,80.10
2019-05-15T20:27:08.558Z,81.20
2019-05-15T20:29:38.349Z,81.80
2019-05-15T20:32:06.970Z,83.40
2019-05-15T20:34:37.778Z,84.10
2019-05-15T20:37:05.556Z,86.00
2019-05-15T20:39:33.929Z,85.90
2019-05-15T20:42:02.316Z,86.90
2019-05-15T20:44:30.693Z,87.20
2019-05-15T20:46:59.192Z,87.30
2019-05-15T20:49:28.536Z,87.90
2019-05-15T20:51:58.226Z,88.30
2019-05-15T20:54:28.459Z,89.70
2019-05-15T20:56:58.322Z,90.00
2019-05-15T20:59:26.916Z,90.60
2019-05-15T21:01:55.291Z,90.50
2019-05-15T21:04:24.629Z,90.60
2019-05-15T21:06:53.719Z,91.20
2019-05-15T21:09:22.092Z,91.30
2019-05-15T21:11:50.459Z,91.60
2019-05-15T21:14:18.835Z,91.90
2019-05-15T21:16:48.491Z,92.40
2019-05-15T21:19:18.791Z,93.30
2019-05-15T21:21:48.033Z,93.40
2019-05-15T21:24:18.205Z,93.50
2019-05-15T21:26:48.865Z,93.40
2019-05-15T21:29:18.536Z,93.80
2019-05-15T21:31:49.073Z,93.80
2019-05-15T21:34:32.277Z,94.10
2019-05-15T21:36:48.345Z,94.10
2019-05-15T21:39:17.540Z,94.40
2019-05-15T21:41:45.915Z,94.20
2019-05-15T21:44:14.353Z,94.30
2019-05-15T21:46:42.799Z,94.40
2019-05-15T21:49:11.167Z,94.50
2019-05-15T21:51:39.527Z,94.60
2019-05-15T21:54:09.920Z,94.60
2019-05-15T21:56:38.727Z,94.80
2019-05-15T21:59:08.219Z,94.60
2019-05-15T22:01:39.489Z,94.70
2019-05-15T22:04:06.991Z,94.50
2019-05-15T22:06:35.366Z,94.50
2019-05-15T22:09:07.787Z,94.00
2019-05-15T22:11:38.730Z,93.90
2019-05-15T22:14:08.044Z,93.60
2019-05-15T22:16:59.749Z,93.50
2019-05-15T22:19:45.457Z,93.40
2019-05-15T22:22:14.025Z,93.80
2019-05-15T22:24:42.380Z,93.80
2019-05-15T22:27:10.750Z,94.10
2019-05-15T22:29:39.196Z,94.30
2019-05-15T22:32:08.188Z,94.20
2019-05-15T22:34:37.648Z,94.30
2019-05-15T22:37:06.019Z,94.40
2019-05-15T22:39:38.412Z,94.50
2019-05-15T22:42:08.222Z,94.80
2019-05-15T22:44:38.381Z,95.00
2019-05-15T22:47:06.394Z,95.00
2019-05-15T22:49:34.763Z,95.10
2019-05-15T22:52:03.171Z,95.20
2019-05-15T22:54:31.535Z,95.20
2019-05-15T22:57:00.187Z,95.20
2019-05-15T22:59:28.579Z,95.20
2019-05-15T23:01:58.214Z,95.10
2019-05-15T23:04:28.645Z,95.40
2019-05-15T23:06:56.891Z,95.00
2019-05-15T23:09:25.271Z,95.00
2019-05-15T23:11:53.639Z,95.00
2019-05-15T23:14:22.188Z,95.00
2019-05-15T23:16:50.559Z,95.50
2019-05-15T23:19:18.928Z,95.00
2019-05-15T23:21:48.629Z,94.10
2019-05-15T23:24:18.865Z,93.90
2019-05-15T23:26:47.742Z,93.90
2019-05-15T23:29:16.256Z,93.60
2019-05-15T23:31:44.643Z,93.70
2019-05-15T23:34:13.003Z,94.00
2019-05-15T23:36:41.371Z,94.10
2019-05-15T23:39:09.755Z,94.00
2019-05-15T23:41:38.119Z,94.10
2019-05-15T23:44:08.203Z,94.10
2019-05-15T23:46:38.262Z,94.50
2019-05-15T23:49:08.334Z,95.00
2019-05-15T23:51:38.483Z,95.30
2019-05-15T23:54:08.262Z,95.60
2019-05-15T23:56:38.732Z,95.90
2019-05-15T23:59:08.418Z,96.20
